createdAt,value
2023-05-09T00:02:04.559Z,15.30
2023-05-09T00:04:32.821Z,15.20
2023-05-09T00:07:00.513Z,15.20
2023-05-09T00:09:27.858Z,15.20
2023-05-09T00:11:55.415Z,15.20
2023-05-09T00:14:24.777Z,15.20
2023-05-09T00:16:53.578Z,15.10
2023-05-09T00:19:20.959Z,15.10
2023-05-09T00:21:48.418Z,15.00
2023-05-09T00:24:15.902Z,15.00
2023-05-09T00:26:43.187Z,15.00
2023-05-09T00:29:10.461Z,14.90
2023-05-09T00:31:37.994Z,14.90
2023-05-09T00:34:05.623Z,14.80
2023-05-09T00:36:33.072Z,14.80
2023-05-09T00:39:00.502Z,14.80
2023-05-09T00:41:27.756Z,14.70
2023-05-09T00:43:54.999Z,14.70
2023-05-09T00:46:22.613Z,14.70
2023-05-09T00:48:50.174Z,14.60
2023-05-09T00:51:18.139Z,14.60
2023-05-09T00:53:46.132Z,14.60
2023-05-09T00:56:15.516Z,14.50
2023-05-09T00:58:42.787Z,14.50
2023-05-09T01:01:10.087Z,14.40
2023-05-09T01:03:41.588Z,14.40
2023-05-09T01:06:32.908Z,14.40
2023-05-09T01:09:32.222Z,14.40
2023-05-09T01:12:33.426Z,14.40
2023-05-09T01:15:30.604Z,14.40
2023-05-09T01:18:20.817Z,14.40
2023-05-09T01:21:03.516Z,14.40
2023-05-09T01:23:48.856Z,14.40
2023-05-09T01:26:45.245Z,14.40
2023-05-09T01:29:34.130Z,14.40
2023-05-09T01:32:15.473Z,14.30
2023-05-09T01:34:44.658Z,14.30
2023-05-09T01:37:15.105Z,14.30
2023-05-09T01:39:47.407Z,14.30
2023-05-09T01:42:15.370Z,14.30
2023-05-09T01:44:43.685Z,14.30
2023-05-09T01:47:12.023Z,14.30
2023-05-09T01:49:42.894Z,14.40
2023-05-09T01:52:13.994Z,14.40
2023-05-09T01:54:42.811Z,14.40
2023-05-09T01:57:11.986Z,14.40
2023-05-09T01:59:41.950Z,14.40
2023-05-09T02:02:09.849Z,14.40
2023-05-09T02:04:37.946Z,14.30
2023-05-09T02:07:07.733Z,14.30
2023-05-09T02:09:35.916Z,14.30
2023-05-09T02:12:04.674Z,14.30
2023-05-09T02:14:32.561Z,14.20
2023-05-09T02:17:06.407Z,14.20
2023-05-09T02:19:35.876Z,14.20
2023-05-09T02:22:04.983Z,14.20
2023-05-09T02:24:36.716Z,14.20
2023-05-09T02:27:05.323Z,14.30
2023-05-09T02:29:40.554Z,14.20
2023-05-09T02:32:11.626Z,14.20
2023-05-09T02:34:40.975Z,14.20
2023-05-09T02:37:09.862Z,14.20
2023-05-09T02:39:37.532Z,14.20
2023-05-09T02:42:10.598Z,14.20
2023-05-09T02:44:41.085Z,14.20
2023-05-09T02:47:08.456Z,14.20
2023-05-09T02:49:36.589Z,14.10
2023-05-09T02:52:05.577Z,14.10
2023-05-09T02:54:33.081Z,14.10
2023-05-09T02:57:00.636Z,14.10
2023-05-09T02:59:28.767Z,14.10
2023-05-09T03:01:57.758Z,14.10
2023-05-09T03:04:27.850Z,14.10
2023-05-09T03:06:55.545Z,14.00
2023-05-09T03:09:23.276Z,14.00
2023-05-09T03:11:50.678Z,14.00
2023-05-09T03:14:18.361Z,14.00
2023-05-09T03:16:45.785Z,14.00
2023-05-09T03:19:22.015Z,14.00
2023-05-09T03:21:49.566Z,14.00
2023-05-09T03:24:16.987Z,14.00
2023-05-09T03:26:44.500Z,14.00
2023-05-09T03:29:11.808Z,14.00
2023-05-09T03:31:39.761Z,13.90
2023-05-09T03:34:07.282Z,13.90
2023-05-09T03:36:34.699Z,13.90
2023-05-09T03:39:02.957Z,13.90
2023-05-09T03:41:30.511Z,13.90
2023-05-09T03:43:57.749Z,13.90
2023-05-09T03:46:25.287Z,13.90
2023-05-09T03:48:52.945Z,13.90
2023-05-09T03:51:20.933Z,13.90
2023-05-09T03:53:49.483Z,13.90
2023-05-09T03:56:17.173Z,13.90
2023-05-09T03:58:50.237Z,13.80
2023-05-09T04:01:18.154Z,13.80
2023-05-09T04:03:46.730Z,13.80
2023-05-09T04:06:15.648Z,13.80
2023-05-09T04:08:44.981Z,13.80
2023-05-09T04:11:12.721Z,13.70
2023-05-09T04:13:43.468Z,13.70
2023-05-09T04:16:26.229Z,13.80
2023-05-09T04:18:54.693Z,13.80
2023-05-09T04:21:22.063Z,13.80
2023-05-09T04:23:52.675Z,13.80
2023-05-09T04:26:26.822Z,13.90
2023-05-09T04:28:56.960Z,14.00
2023-05-09T04:31:24.443Z,14.10
2023-05-09T04:33:52.910Z,14.20
2023-05-09T04:36:22.149Z,14.40
2023-05-09T04:38:50.009Z,14.50
2023-05-09T04:41:22.952Z,14.70
2023-05-09T04:43:50.703Z,14.80
2023-05-09T04:46:18.451Z,15.00
2023-05-09T04:48:45.953Z,15.20
2023-05-09T04:51:13.489Z,15.40
2023-05-09T04:53:41.035Z,15.60
2023-05-09T04:56:08.679Z,15.90
2023-05-09T04:58:39.596Z,16.10
2023-05-09T05:01:10.479Z,16.30
2023-05-09T05:03:38.861Z,16.60
2023-05-09T05:06:07.253Z,16.80
2023-05-09T05:08:36.282Z,17.10
2023-05-09T05:11:03.653Z,17.40
2023-05-09T05:13:31.298Z,17.70
2023-05-09T05:16:01.619Z,18.10
2023-05-09T05:18:28.974Z,18.60
2023-05-09T05:20:56.607Z,19.10
2023-05-09T05:23:25.673Z,19.60
2023-05-09T05:25:54.653Z,20.10
2023-05-09T05:28:23.579Z,20.60
2023-05-09T05:30:50.958Z,21.00
2023-05-09T05:33:18.370Z,21.50
2023-05-09T05:35:45.863Z,21.90
2023-05-09T05:38:13.452Z,22.30
2023-05-09T05:40:40.850Z,22.70
2023-05-09T05:43:08.764Z,23.00
2023-05-09T05:45:38.345Z,23.30
2023-05-09T05:48:08.582Z,23.60
2023-05-09T05:50:36.670Z,23.90
2023-05-09T05:53:04.720Z,24.30
2023-05-09T05:55:32.296Z,24.60
2023-05-09T05:58:00.609Z,24.90
2023-05-09T06:00:28.461Z,25.10
2023-05-09T06:03:02.519Z,25.50
2023-05-09T06:05:42.489Z,25.60
2023-05-09T06:08:10.034Z,25.80
2023-05-09T06:10:37.419Z,25.90
2023-05-09T06:13:04.884Z,26.10
2023-05-09T06:15:32.727Z,26.30
2023-05-09T06:18:00.598Z,26.60
2023-05-09T06:20:28.422Z,26.90
2023-05-09T06:22:55.898Z,27.10
2023-05-09T06:25:23.394Z,27.40
2023-05-09T06:27:51.234Z,27.60
2023-05-09T06:30:26.161Z,27.70
2023-05-09T06:32:55.263Z,27.80
2023-05-09T06:35:22.935Z,27.90
2023-05-09T06:37:50.658Z,27.90
2023-05-09T06:40:18.363Z,28.10
2023-05-09T06:42:45.947Z,28.20
2023-05-09T06:45:13.875Z,28.30
2023-05-09T06:47:41.445Z,28.40
2023-05-09T06:50:09.279Z,28.40
2023-05-09T06:52:36.798Z,28.40
2023-05-09T06:55:04.612Z,28.40
2023-05-09T06:57:32.401Z,28.30
2023-05-09T06:59:59.792Z,28.10
2023-05-09T07:02:27.342Z,27.90
2023-05-09T07:04:54.976Z,27.80
2023-05-09T07:07:22.596Z,27.70
2023-05-09T07:09:53.003Z,27.80
2023-05-09T07:12:22.774Z,27.90
2023-05-09T07:14:50.126Z,28.10
2023-05-09T07:17:23.664Z,28.10
2023-05-09T07:19:52.002Z,28.00
2023-05-09T07:22:19.499Z,28.00
2023-05-09T07:24:47.109Z,28.00
2023-05-09T07:27:14.542Z,28.10
2023-05-09T07:29:41.918Z,28.20
2023-05-09T07:32:09.452Z,28.40
2023-05-09T07:34:37.075Z,28.60
2023-05-09T07:37:04.567Z,28.70
2023-05-09T07:39:32.073Z,28.60
2023-05-09T07:41:59.591Z,28.70
2023-05-09T07:44:27.093Z,28.80
2023-05-09T07:46:59.258Z,28.90
2023-05-09T07:49:26.829Z,29.20
2023-05-09T07:51:54.293Z,29.40
2023-05-09T07:54:21.748Z,29.40
2023-05-09T07:56:49.344Z,29.50
2023-05-09T07:59:17.229Z,29.70
2023-05-09T08:01:44.860Z,29.60
2023-05-09T08:04:12.345Z,29.60
2023-05-09T08:06:39.980Z,29.60
2023-05-09T08:09:07.557Z,29.80
2023-05-09T08:11:36.084Z,30.00
2023-05-09T08:14:03.566Z,30.20
2023-05-09T08:16:31.179Z,30.40
2023-05-09T08:18:58.603Z,30.60
2023-05-09T08:21:26.488Z,30.70
2023-05-09T08:23:53.797Z,30.90
2023-05-09T08:26:22.560Z,31.00
2023-05-09T08:28:49.754Z,31.10
2023-05-09T08:31:17.201Z,31.20
2023-05-09T08:33:44.744Z,31.20
2023-05-09T08:36:12.258Z,31.10
2023-05-09T08:38:40.684Z,31.00
2023-05-09T08:41:08.364Z,31.00
2023-05-09T08:43:36.499Z,31.00
2023-05-09T08:46:08.632Z,31.00
2023-05-09T08:48:39.173Z,31.10
2023-05-09T08:51:07.749Z,31.10
2023-05-09T08:53:35.914Z,31.10
2023-05-09T08:56:04.177Z,31.20
2023-05-09T08:58:33.247Z,31.30
2023-05-09T09:01:03.498Z,31.30
2023-05-09T09:03:31.283Z,31.40
2023-05-09T09:05:59.842Z,31.30
2023-05-09T09:08:27.855Z,31.00
2023-05-09T09:10:55.834Z,30.80
2023-05-09T09:13:23.976Z,30.50
2023-05-09T09:15:54.070Z,30.30
2023-05-09T09:18:28.264Z,30.10
2023-05-09T09:20:59.186Z,30.00
2023-05-09T09:23:28.315Z,29.80
2023-05-09T09:26:04.990Z,29.70
2023-05-09T09:28:34.447Z,29.60
2023-05-09T09:31:02.286Z,29.50
2023-05-09T09:33:30.643Z,29.40
2023-05-09T09:35:59.228Z,29.30
2023-05-09T09:38:26.801Z,29.20
2023-05-09T09:40:58.956Z,29.10
2023-05-09T09:43:31.546Z,28.90
2023-05-09T09:46:02.517Z,28.70
2023-05-09T09:48:35.072Z,28.40
2023-05-09T09:51:09.942Z,28.30
2023-05-09T09:53:40.202Z,28.20
2023-05-09T09:56:08.228Z,28.10
2023-05-09T09:58:36.309Z,28.00
2023-05-09T10:01:08.606Z,27.90
2023-05-09T10:03:41.080Z,27.70
2023-05-09T10:06:14.735Z,27.60
2023-05-09T10:08:46.833Z,27.40
2023-05-09T10:11:15.313Z,27.30
2023-05-09T10:13:44.438Z,27.20
2023-05-09T10:16:12.811Z,26.90
2023-05-09T10:18:42.950Z,26.80
2023-05-09T10:21:14.131Z,26.60
2023-05-09T10:23:45.346Z,26.50
2023-05-09T10:26:28.929Z,26.30
2023-05-09T10:29:00.622Z,26.20
2023-05-09T10:31:32.575Z,26.20
2023-05-09T10:34:04.558Z,26.10
2023-05-09T10:36:32.605Z,26.10
2023-05-09T10:39:00.507Z,26.10
2023-05-09T10:41:29.118Z,26.10
2023-05-09T10:43:58.234Z,26.10
2023-05-09T10:46:27.479Z,26.00
2023-05-09T10:48:55.734Z,25.90
2023-05-09T10:51:24.695Z,25.80
2023-05-09T10:53:52.248Z,25.60
2023-05-09T10:56:29.702Z,25.40
2023-05-09T10:58:57.467Z,25.30
2023-05-09T11:01:37.758Z,25.20
2023-05-09T11:04:14.405Z,25.20
2023-05-09T11:06:42.270Z,25.10
2023-05-09T11:09:38.016Z,25.10
2023-05-09T11:12:05.399Z,25.20
2023-05-09T11:14:45.056Z,25.10
2023-05-09T11:17:21.728Z,25.00
2023-05-09T11:19:49.441Z,25.00
2023-05-09T11:22:26.129Z,25.00
2023-05-09T11:25:10.047Z,25.10
2023-05-09T11:27:49.919Z,25.10
2023-05-09T11:30:19.863Z,25.20
2023-05-09T11:32:51.295Z,25.10
2023-05-09T11:35:20.771Z,25.10
2023-05-09T11:38:03.949Z,24.90
2023-05-09T11:40:33.165Z,24.90
2023-05-09T11:43:01.466Z,24.80
2023-05-09T11:45:32.971Z,24.80
2023-05-09T11:48:01.087Z,24.80
2023-05-09T11:50:29.252Z,24.80
2023-05-09T11:52:56.862Z,24.80
2023-05-09T11:55:29.890Z,24.90
2023-05-09T11:57:58.800Z,24.90
2023-05-09T12:00:26.693Z,24.90
2023-05-09T12:02:54.418Z,24.90
2023-05-09T12:05:23.257Z,24.80
2023-05-09T12:07:50.968Z,24.70
2023-05-09T12:10:23.105Z,24.70
2023-05-09T12:12:52.954Z,24.70
2023-05-09T12:15:21.819Z,24.70
2023-05-09T12:18:03.014Z,24.70
2023-05-09T12:20:42.393Z,24.60
2023-05-09T12:23:12.554Z,24.60
2023-05-09T12:25:53.142Z,24.50
2023-05-09T12:28:24.876Z,24.50
2023-05-09T12:30:53.710Z,24.50
2023-05-09T12:33:21.570Z,24.50
2023-05-09T12:36:03.128Z,24.50
2023-05-09T12:38:30.597Z,24.60
2023-05-09T12:41:06.752Z,24.60
2023-05-09T12:43:37.707Z,24.60
2023-05-09T12:46:05.669Z,24.60
2023-05-09T12:48:38.192Z,24.70
2023-05-09T12:51:06.574Z,24.70
2023-05-09T12:53:39.051Z,24.70
2023-05-09T12:56:16.522Z,24.70
2023-05-09T12:58:51.712Z,24.80
2023-05-09T13:01:28.338Z,24.90
2023-05-09T13:04:06.575Z,25.00
2023-05-09T13:06:35.938Z,25.10
2023-05-09T13:09:06.171Z,25.20
2023-05-09T13:11:33.852Z,25.30
2023-05-09T13:14:04.159Z,25.30
2023-05-09T13:16:31.805Z,25.20
2023-05-09T13:18:59.186Z,25.20
2023-05-09T13:21:26.558Z,25.30
2023-05-09T13:23:54.489Z,25.20
2023-05-09T13:26:22.359Z,25.20
2023-05-09T13:28:49.774Z,25.20
2023-05-09T13:31:19.032Z,25.20
2023-05-09T13:33:48.090Z,25.20
2023-05-09T13:36:17.143Z,25.20
2023-05-09T13:38:45.771Z,25.10
2023-05-09T13:41:19.798Z,25.10
2023-05-09T13:43:47.377Z,25.10
2023-05-09T13:46:15.284Z,25.10
2023-05-09T13:48:42.906Z,25.10
2023-05-09T13:51:11.050Z,25.10
2023-05-09T13:53:39.342Z,25.10
2023-05-09T13:56:09.444Z,25.10
2023-05-09T13:58:37.110Z,25.20
2023-05-09T14:01:04.960Z,25.30
2023-05-09T14:03:32.463Z,25.30
2023-05-09T14:06:00.124Z,25.30
2023-05-09T14:08:27.725Z,25.30
2023-05-09T14:10:55.330Z,25.40
2023-05-09T14:13:23.196Z,25.40
2023-05-09T14:15:51.067Z,25.40
2023-05-09T14:18:20.772Z,25.40
2023-05-09T14:20:48.693Z,25.40
2023-05-09T14:23:16.219Z,25.40
2023-05-09T14:25:43.605Z,25.30
2023-05-09T14:28:11.913Z,25.30
2023-05-09T14:30:39.389Z,25.10
2023-05-09T14:33:07.403Z,25.10
2023-05-09T14:35:34.986Z,25.10
2023-05-09T14:38:02.693Z,25.00
2023-05-09T14:40:31.899Z,24.90
2023-05-09T14:43:02.294Z,24.90
2023-05-09T14:45:31.384Z,24.90
2023-05-09T14:47:59.614Z,24.90
2023-05-09T14:50:27.076Z,24.90
2023-05-09T14:52:54.749Z,24.90
2023-05-09T14:55:26.611Z,25.00
2023-05-09T14:57:54.073Z,24.90
2023-05-09T15:00:23.103Z,24.90
2023-05-09T15:02:50.830Z,24.90
2023-05-09T15:05:18.510Z,24.90
2023-05-09T15:07:46.488Z,25.00
2023-05-09T15:10:14.640Z,25.00
2023-05-09T15:12:42.984Z,24.90
2023-05-09T15:15:18.536Z,24.90
2023-05-09T15:17:46.819Z,24.90
2023-05-09T15:20:15.739Z,24.90
2023-05-09T15:22:44.654Z,24.80
2023-05-09T15:25:12.511Z,24.80
2023-05-09T15:27:40.130Z,24.80
2023-05-09T15:30:08.501Z,24.70
2023-05-09T15:32:42.487Z,24.70
2023-05-09T15:35:10.238Z,24.70
2023-05-09T15:37:37.829Z,24.60
2023-05-09T15:40:06.102Z,24.60
2023-05-09T15:42:33.537Z,24.60
2023-05-09T15:45:01.564Z,24.60
2023-05-09T15:47:28.977Z,24.60
2023-05-09T15:49:56.401Z,24.60
2023-05-09T15:52:23.782Z,24.50
2023-05-09T15:54:51.345Z,24.50
2023-05-09T15:57:18.735Z,24.40
2023-05-09T15:59:46.260Z,24.40
2023-05-09T16:02:13.794Z,24.40
2023-05-09T16:04:42.419Z,24.40
2023-05-09T16:07:09.823Z,24.30
2023-05-09T16:09:37.271Z,24.30
2023-05-09T16:12:05.511Z,24.30
2023-05-09T16:14:33.074Z,24.40
2023-05-09T16:17:01.170Z,24.40
2023-05-09T16:19:29.554Z,24.40
2023-05-09T16:21:56.866Z,24.30
2023-05-09T16:24:24.670Z,24.30
2023-05-09T16:26:52.156Z,24.30
2023-05-09T16:29:19.642Z,24.20
2023-05-09T16:31:47.609Z,24.10
2023-05-09T16:34:14.924Z,24.00
2023-05-09T16:36:44.013Z,23.90
2023-05-09T16:39:11.460Z,23.90
2023-05-09T16:41:38.811Z,23.80
2023-05-09T16:44:06.266Z,23.70
2023-05-09T16:46:33.610Z,23.70
2023-05-09T16:49:01.045Z,23.60
2023-05-09T16:51:28.533Z,23.60
2023-05-09T16:53:56.086Z,23.50
2023-05-09T16:56:23.807Z,23.50
2023-05-09T16:58:51.653Z,23.50
2023-05-09T17:01:19.134Z,23.50
2023-05-09T17:03:48.008Z,23.40
2023-05-09T17:06:15.354Z,23.30
2023-05-09T17:08:43.861Z,23.30
2023-05-09T17:11:11.348Z,23.30
2023-05-09T17:13:39.898Z,23.20
2023-05-09T17:16:07.593Z,23.10
2023-05-09T17:18:37.943Z,23.10
2023-05-09T17:21:06.592Z,23.10
2023-05-09T17:23:33.837Z,23.10
2023-05-09T17:26:01.137Z,23.00
2023-05-09T17:28:28.739Z,22.90
2023-05-09T17:30:57.622Z,22.90
2023-05-09T17:33:28.816Z,22.80
2023-05-09T17:35:57.324Z,22.80
2023-05-09T17:38:24.859Z,22.80
2023-05-09T17:40:52.081Z,22.80
2023-05-09T17:43:19.537Z,22.70
2023-05-09T17:45:47.047Z,22.70
2023-05-09T17:48:14.524Z,22.60
2023-05-09T17:50:43.479Z,22.60
2023-05-09T17:53:10.913Z,22.60
2023-05-09T17:55:38.261Z,22.50
2023-05-09T17:58:06.794Z,22.50
2023-05-09T18:00:34.702Z,22.40
2023-05-09T18:03:03.982Z,22.30
2023-05-09T18:05:31.615Z,22.20
2023-05-09T18:08:00.819Z,22.10
2023-05-09T18:10:28.880Z,22.00
2023-05-09T18:12:56.529Z,22.00
2023-05-09T18:15:24.821Z,21.90
2023-05-09T18:17:54.591Z,21.90
2023-05-09T18:20:22.178Z,21.80
2023-05-09T18:22:49.746Z,21.70
2023-05-09T18:25:17.266Z,21.60
2023-05-09T18:27:44.699Z,21.50
2023-05-09T18:30:12.701Z,21.50
2023-05-09T18:32:40.753Z,21.40
2023-05-09T18:35:09.015Z,21.30
2023-05-09T18:37:37.005Z,21.20
2023-05-09T18:40:05.373Z,21.10
2023-05-09T18:42:32.883Z,21.10
2023-05-09T18:45:00.885Z,21.00
2023-05-09T18:47:29.409Z,20.90
2023-05-09T18:49:56.905Z,20.80
2023-05-09T18:52:24.417Z,20.70
2023-05-09T18:54:51.835Z,20.70
2023-05-09T18:57:19.894Z,20.60
2023-05-09T18:59:47.338Z,20.50
2023-05-09T19:02:14.892Z,20.40
2023-05-09T19:04:42.212Z,20.30
2023-05-09T19:07:09.949Z,20.30
2023-05-09T19:09:37.153Z,20.20
2023-05-09T19:12:05.199Z,20.20
2023-05-09T19:14:32.458Z,20.10
2023-05-09T19:16:59.929Z,20.10
2023-05-09T19:19:27.396Z,20.00
2023-05-09T19:21:54.961Z,19.90
2023-05-09T19:24:22.199Z,19.90
2023-05-09T19:26:49.453Z,19.90
2023-05-09T19:29:16.633Z,19.90
2023-05-09T19:31:44.018Z,19.80
2023-05-09T19:34:11.286Z,19.80
2023-05-09T19:36:38.476Z,19.80
2023-05-09T19:39:05.854Z,19.70
2023-05-09T19:41:33.318Z,19.80
2023-05-09T19:44:00.694Z,19.70
2023-05-09T19:46:28.157Z,19.70
2023-05-09T19:48:55.876Z,19.70
2023-05-09T19:51:23.391Z,19.60
2023-05-09T19:53:50.655Z,19.60
2023-05-09T19:56:18.108Z,19.60
2023-05-09T19:58:49.428Z,19.60
2023-05-09T20:01:17.892Z,19.60
2023-05-09T20:03:46.958Z,19.60
2023-05-09T20:06:14.395Z,19.50
2023-05-09T20:08:41.593Z,19.50
2023-05-09T20:11:08.912Z,19.50
2023-05-09T20:13:36.137Z,19.40
2023-05-09T20:16:04.138Z,19.40
2023-05-09T20:18:33.490Z,19.30
2023-05-09T20:21:01.774Z,19.30
2023-05-09T20:23:29.294Z,19.30
2023-05-09T20:25:56.916Z,19.30
2023-05-09T20:28:24.557Z,19.20
2023-05-09T20:30:51.906Z,19.20
2023-05-09T20:33:19.344Z,19.10
2023-05-09T20:35:49.117Z,19.10
2023-05-09T20:38:16.365Z,19.00
2023-05-09T20:40:43.581Z,19.00
2023-05-09T20:43:10.957Z,19.00
2023-05-09T20:45:38.543Z,18.90
2023-05-09T20:48:06.583Z,18.80
2023-05-09T20:50:34.053Z,18.90
2023-05-09T20:53:01.530Z,18.80
2023-05-09T20:55:29.267Z,18.80
2023-05-09T20:57:56.774Z,18.80
2023-05-09T21:00:24.318Z,18.80
2023-05-09T21:02:51.837Z,18.80
2023-05-09T21:05:19.689Z,18.70
2023-05-09T21:07:47.093Z,18.70
2023-05-09T21:10:14.835Z,18.70
2023-05-09T21:12:42.869Z,18.70
2023-05-09T21:15:10.654Z,18.60
2023-05-09T21:17:38.071Z,18.60
2023-05-09T21:20:06.389Z,18.50
2023-05-09T21:22:33.603Z,18.50
2023-05-09T21:25:01.032Z,18.50
2023-05-09T21:27:31.383Z,18.40
2023-05-09T21:29:58.978Z,18.40
2023-05-09T21:32:26.864Z,18.30
2023-05-09T21:34:54.476Z,18.30
2023-05-09T21:37:21.684Z,18.20
2023-05-09T21:39:48.894Z,18.20
2023-05-09T21:42:16.532Z,18.10
2023-05-09T21:44:44.331Z,18.10
2023-05-09T21:47:11.757Z,18.10
2023-05-09T21:49:39.178Z,18.10
2023-05-09T21:52:06.693Z,18.10
2023-05-09T21:54:34.190Z,18.00
2023-05-09T21:57:01.756Z,18.00
2023-05-09T21:59:29.080Z,18.00
2023-05-09T22:01:56.564Z,18.00
2023-05-09T22:04:23.972Z,18.00
2023-05-09T22:06:51.201Z,17.90
2023-05-09T22:09:18.861Z,17.90
2023-05-09T22:11:46.279Z,17.90
2023-05-09T22:14:13.519Z,17.90
2023-05-09T22:16:41.040Z,17.80
2023-05-09T22:19:08.534Z,17.80
2023-05-09T22:21:35.901Z,17.80
2023-05-09T22:24:03.354Z,17.80
2023-05-09T22:26:30.698Z,17.80
2023-05-09T22:28:57.945Z,17.80
2023-05-09T22:31:25.175Z,17.70
2023-05-09T22:33:52.534Z,17.70
2023-05-09T22:36:19.937Z,17.70
2023-05-09T22:38:47.186Z,17.70
2023-05-09T22:41:14.464Z,17.70
2023-05-09T22:43:41.699Z,17.70
2023-05-09T22:46:09.038Z,17.70
2023-05-09T22:48:36.343Z,17.70
2023-05-09T22:51:03.769Z,17.70
2023-05-09T22:53:31.134Z,17.70
2023-05-09T22:55:58.661Z,17.70
2023-05-09T22:58:26.380Z,17.70
2023-05-09T23:00:53.749Z,17.70
2023-05-09T23:03:21.670Z,17.70
2023-05-09T23:05:49.244Z,17.80
2023-05-09T23:08:16.946Z,17.70
2023-05-09T23:10:44.453Z,17.80
2023-05-09T23:13:12.338Z,17.80
2023-05-09T23:15:39.705Z,17.80
2023-05-09T23:18:07.152Z,17.80
2023-05-09T23:20:36.086Z,17.80
2023-05-09T23:23:03.562Z,17.80
2023-05-09T23:25:31.010Z,17.80
2023-05-09T23:27:58.343Z,17.80
2023-05-09T23:30:25.630Z,17.80
2023-05-09T23:32:52.975Z,17.80
2023-05-09T23:35:21.149Z,17.80
2023-05-09T23:37:48.394Z,17.80
2023-05-09T23:40:15.879Z,17.80
2023-05-09T23:42:43.342Z,17.80
2023-05-09T23:45:10.872Z,17.70
2023-05-09T23:47:38.293Z,17.70
2023-05-09T23:50:06.538Z,17.60
2023-05-09T23:52:34.091Z,17.60
2023-05-09T23:55:01.671Z,17.60
2023-05-09T23:57:28.901Z,17.50
2023-05-09T23:59:56.296Z,17.50
